Time;durP1;ratioP1;P1;durP2;ratioP2;P2;SDS_P1;SDS_P2;PMS_P1;PMS_P2;Temp;Humidity;BMP_temperature;BMP_pressure;BME280_temperature;BME280_humidity;BME280_pressure;Samples;Min_cycle;Max_cycle;Signal;HPM_P1;HPM_P2
2021/03/13 00:00:54;;;;;;;19.25;8.78;;;;;;;2.71;93.84;100896.61;1769250;81;21440;-51
2021/03/13 00:03:21;;;;;;;25.02;8.70;;;;;;;2.68;94.07;100884.70;1738740;82;21208;-51
2021/03/13 00:05:49;;;;;;;17.60;8.20;;;;;;;2.64;94.23;100885.13;1769209;81;21098;-51
2021/03/13 00:08:17;;;;;;;16.80;7.87;;;;;;;2.64;94.43;100886.91;1738736;82;21390;-51
2021/03/13 00:10:46;;;;;;;19.50;7.62;;;;;;;2.64;94.42;100880.29;1769180;81;21139;-51
2021/03/13 00:13:14;;;;;;;22.52;8.45;;;;;;;2.61;94.40;100875.86;1738701;82;21564;-51
2021/03/13 00:15:43;;;;;;;16.87;8.45;;;;;;;2.60;94.36;100881.17;1769166;80;21207;-51
2021/03/13 00:18:11;;;;;;;18.80;7.90;;;;;;;2.58;94.46;100882.06;1738695;82;21493;-52
2021/03/13 00:20:41;;;;;;;20.77;8.00;;;;;;;2.61;94.56;100889.56;1769246;81;21368;-52
2021/03/13 00:23:09;;;;;;;22.05;9.43;;;;;;;2.63;94.46;100893.95;1738550;82;21096;-51
2021/03/13 00:25:37;;;;;;;19.27;8.40;;;;;;;2.65;94.28;100893.97;1769267;81;21051;-51
2021/03/13 00:28:05;;;;;;;18.40;8.50;;;;;;;2.67;94.04;100894.84;1738617;82;21131;-52
2021/03/13 00:30:35;;;;;;;22.73;9.30;;;;;;;2.66;93.78;100894.41;1769342;81;21570;-51
2021/03/13 00:33:19;;;;;;;19.62;9.05;;;;;;;2.66;93.74;100898.37;1738612;82;21378;-52
2021/03/13 00:35:51;;;;;;;23.75;9.45;;;;;;;2.69;93.53;100897.05;1769002;81;21079;-51
2021/03/13 00:38:19;;;;;;;20.30;9.38;;;;;;;2.71;93.28;100899.25;1738657;82;21085;-51
2021/03/13 00:40:47;;;;;;;21.23;9.33;;;;;;;2.70;92.99;100899.70;1769230;81;21210;-51
2021/03/13 00:43:14;;;;;;;27.60;8.80;;;;;;;2.72;92.89;100897.05;1738780;82;21235;-51
2021/03/13 00:45:43;;;;;;;20.55;9.33;;;;;;;2.73;92.66;100882.92;1745643;81;21209;-51
2021/03/13 00:48:10;;;;;;;21.40;8.83;;;;;;;2.73;92.35;100888.22;1744434;82;21163;-51
2021/03/13 00:50:42;;;;;;;18.77;9.48;;;;;;;2.72;92.27;100885.13;1744518;82;21114;-51
2021/03/13 00:53:11;;;;;;;23.87;9.58;;;;;;;2.72;92.08;100877.19;1744552;82;21507;-51
2021/03/13 00:55:38;;;;;;;22.27;9.80;;;;;;;2.69;91.83;100880.73;1744398;82;21075;-51
2021/03/13 00:58:07;;;;;;;18.80;9.10;;;;;;;2.63;91.58;100887.80;1744482;82;21368;-51
2021/03/13 01:00:38;;;;;;;23.02;9.05;;;;;;;2.60;91.61;100886.47;1744409;82;21090;-51
2021/03/13 01:03:06;;;;;;;25.37;10.13;;;;;;;2.53;91.57;100887.77;1744554;82;21495;-51
2021/03/13 01:05:35;;;;;;;21.73;9.68;;;;;;;2.45;91.63;100878.95;1744438;82;21139;-51
2021/03/13 01:08:06;;;;;;;26.33;10.68;;;;;;;2.42;91.74;100881.61;1744448;82;21138;-51
2021/03/13 01:10:38;;;;;;;22.42;10.75;;;;;;;2.41;91.74;100874.55;1741549;82;21374;-51
2021/03/13 01:13:07;;;;;;;22.62;10.55;;;;;;;2.41;91.66;100879.84;1744333;82;21091;-51
2021/03/13 01:15:35;;;;;;;18.57;9.78;;;;;;;2.42;91.47;100878.50;1744454;82;21127;-51
2021/03/13 01:18:05;;;;;;;28.17;11.33;;;;;;;2.40;91.02;100873.65;1744398;82;21127;-51
2021/03/13 01:20:34;;;;;;;20.65;11.10;;;;;;;2.39;90.89;100868.38;1744555;82;21106;-51
2021/03/13 01:23:03;;;;;;;19.95;10.38;;;;;;;2.38;90.75;100875.88;1744408;82;21372;-51
2021/03/13 01:25:32;;;;;;;23.77;11.33;;;;;;;2.36;90.65;100873.67;1744465;82;21193;-51
2021/03/13 01:28:00;;;;;;;21.85;11.03;;;;;;;2.29;90.45;100872.77;1744461;82;21091;-51
2021/03/13 01:30:28;;;;;;;21.70;11.50;;;;;;;2.20;90.35;100873.64;1744528;82;21075;-51
2021/03/13 01:32:57;;;;;;;26.80;11.57;;;;;;;2.16;90.39;100877.16;1744445;82;21162;-51
2021/03/13 01:35:26;;;;;;;28.30;12.82;;;;;;;2.12;90.33;100878.91;1744406;82;21631;-51
2021/03/13 01:37:53;;;;;;;20.48;11.10;;;;;;;2.10;90.32;100877.13;1744364;82;21150;-51
2021/03/13 01:40:21;;;;;;;22.37;11.40;;;;;;;2.09;90.35;100876.69;1744403;82;21167;-50
2021/03/13 01:42:50;;;;;;;25.17;11.83;;;;;;;2.08;90.28;100878.89;1744504;82;21047;-51
2021/03/13 01:45:22;;;;;;;22.98;11.80;;;;;;;2.05;90.36;100884.18;1739157;82;21077;-52
2021/03/13 01:47:52;;;;;;;22.10;11.65;;;;;;;2.06;90.43;100883.30;1738709;82;21397;-51
2021/03/13 01:50:21;;;;;;;23.25;11.22;;;;;;;2.07;90.46;100884.64;1715581;82;21088;-53
2021/03/13 01:52:50;;;;;;;20.02;11.30;;;;;;;2.10;90.52;100887.29;1738611;82;21067;-50
2021/03/13 01:55:18;;;;;;;22.85;10.50;;;;;;;2.14;90.57;100890.83;1738713;82;21079;-51
2021/03/13 01:57:48;;;;;;;22.65;11.22;;;;;;;2.14;90.60;100884.22;1738647;82;21207;-51
2021/03/13 02:00:20;;;;;;;22.55;11.68;;;;;;;2.11;90.64;100878.92;1738667;82;21197;-51
2021/03/13 02:02:50;;;;;;;23.67;10.53;;;;;;;2.10;90.72;100874.48;1738118;82;21112;-51
2021/03/13 02:05:26;;;;;;;26.50;11.50;;;;;;;2.09;90.80;100876.69;1738623;82;21088;-51
2021/03/13 02:08:08;;;;;;;22.58;11.33;;;;;;;2.07;90.93;100883.31;1738706;82;21115;-51
2021/03/13 02:10:55;;;;;;;23.65;10.93;;;;;;;2.07;91.17;100893.00;1738630;82;21089;-51
2021/03/13 02:13:35;;;;;;;21.12;11.35;;;;;;;2.02;91.49;100906.66;1738712;82;21583;-51
2021/03/13 02:16:29;;;;;;;25.77;11.48;;;;;;;1.93;91.63;100907.09;1738490;82;21131;-51
2021/03/13 02:19:41;;;;;;;26.52;11.28;;;;;;;1.88;91.87;100905.30;1707577;83;21103;-52
2021/03/13 02:22:10;;;;;;;22.07;11.50;;;;;;;1.82;91.95;100900.86;1738641;82;21064;-51
2021/03/13 02:25:07;;;;;;;25.35;12.18;;;;;;;1.75;92.21;100897.77;1738648;82;21051;-52
2021/03/13 02:27:41;;;;;;;24.72;12.68;;;;;;;1.74;92.36;100898.64;1715774;82;21368;-51
2021/03/13 02:30:24;;;;;;;25.57;12.70;;;;;;;1.74;92.36;100906.57;1737855;82;21201;-51
2021/03/13 02:33:23;;;;;;;22.17;9.83;;;;;;;1.75;92.28;100916.27;1738347;82;21083;-51
2021/03/13 02:36:02;;;;;;;26.97;12.85;;;;;;;1.77;92.22;100917.16;1728779;82;21619;-51
2021/03/13 02:38:47;;;;;;;20.32;11.53;;;;;;;1.81;92.17;100917.61;1737771;82;21214;-50
2021/03/13 02:41:21;;;;;;;24.05;12.23;;;;;;;1.82;92.06;100913.66;1738630;82;21155;-51
2021/03/13 02:43:52;;;;;;;28.30;13.65;;;;;;;1.84;91.93;100911.00;1733599;82;21147;-52
2021/03/13 02:46:22;;;;;;;25.32;13.10;;;;;;;1.84;91.83;100925.13;1670578;83;21084;-51
2021/03/13 02:48:50;;;;;;;27.10;12.85;;;;;;;1.84;91.72;100935.70;1730476;83;21091;-51
2021/03/13 02:51:21;;;;;;;26.37;12.43;;;;;;;1.85;91.65;100929.95;1730586;82;21047;-51
2021/03/13 02:53:49;;;;;;;26.57;12.60;;;;;;;1.86;91.59;100926.43;1730621;82;21382;-51
2021/03/13 02:56:18;;;;;;;20.75;12.15;;;;;;;1.87;91.49;100933.48;1732165;81;21123;-51
2021/03/13 02:58:49;;;;;;;22.42;12.20;;;;;;;1.87;91.42;100929.52;1730756;83;21566;-51
2021/03/13 03:01:17;;;;;;;23.52;13.45;;;;;;;1.86;91.42;100931.72;1730671;83;21493;-52
2021/03/13 03:03:45;;;;;;;25.32;13.55;;;;;;;1.85;91.34;100932.17;1730694;83;21112;-51
2021/03/13 03:06:17;;;;;;;24.07;12.75;;;;;;;1.86;91.33;100933.04;1729990;82;21709;-51
2021/03/13 03:08:46;;;;;;;27.32;13.58;;;;;;;1.88;91.32;100932.64;1707808;83;21143;-51
2021/03/13 03:11:24;;;;;;;25.60;12.78;;;;;;;1.90;91.27;100948.06;1730457;82;21167;-52
2021/03/13 03:13:54;;;;;;;24.50;12.63;;;;;;;1.92;91.18;100947.62;1730704;83;21615;-51
2021/03/13 03:16:22;;;;;;;21.77;12.35;;;;;;;1.97;91.13;100947.20;1730632;83;21199;-52
2021/03/13 03:18:53;;;;;;;26.85;13.75;;;;;;;2.02;91.03;100941.04;1730663;82;22118;-51
2021/03/13 03:21:21;;;;;;;24.75;13.98;;;;;;;2.07;90.88;100940.61;1730699;83;21115;-51
2021/03/13 03:23:51;;;;;;;24.47;13.48;;;;;;;2.10;90.72;100936.22;1730637;83;21076;-52
2021/03/13 03:26:19;;;;;;;25.65;13.53;;;;;;;2.16;90.56;100941.98;1730726;83;21499;-51
2021/03/13 03:28:47;;;;;;;25.52;13.10;;;;;;;2.21;90.45;100950.80;1730710;83;21436;-51
2021/03/13 03:31:16;;;;;;;27.02;13.75;;;;;;;2.27;90.27;100948.63;1730686;83;21401;-52
2021/03/13 03:33:45;;;;;;;33.23;16.45;;;;;;;2.31;90.03;100952.14;1730433;83;21155;-51
2021/03/13 03:36:16;;;;;;;32.25;16.65;;;;;;;2.33;89.83;100947.76;1730749;83;21575;-51
2021/03/13 03:38:46;;;;;;;33.53;18.07;;;;;;;2.34;89.70;100944.23;1730585;82;21103;-51
2021/03/13 03:41:16;;;;;;;31.17;14.58;;;;;;;2.36;89.61;100953.92;1730268;82;21123;-51
2021/03/13 03:43:45;;;;;;;28.17;14.70;;;;;;;2.36;89.38;100950.41;1731749;82;22126;-51
2021/03/13 03:46:15;;;;;;;24.75;13.55;;;;;;;2.36;89.31;100942.47;1738439;82;21158;-51
2021/03/13 03:48:43;;;;;;;27.77;14.18;;;;;;;2.39;89.28;100930.56;1738773;82;21662;-51
2021/03/13 03:51:15;;;;;;;26.25;13.68;;;;;;;2.41;89.14;100924.83;1738458;82;21238;-51
2021/03/13 03:53:49;;;;;;;24.95;13.22;;;;;;;2.43;89.06;100929.26;1738342;82;21084;-51
2021/03/13 03:56:21;;;;;;;24.72;13.43;;;;;;;2.45;88.70;100927.05;1738753;82;22294;-52
2021/03/13 03:58:50;;;;;;;29.05;14.87;;;;;;;2.39;88.14;100919.98;1738788;82;21106;-52
2021/03/13 04:01:18;;;;;;;29.50;14.73;;;;;;;2.33;87.93;100918.66;1738704;82;21077;-51
2021/03/13 04:03:53;;;;;;;28.50;15.05;;;;;;;2.32;87.89;100908.92;1738758;82;21147;-52
2021/03/13 04:06:21;;;;;;;;;;;;;;;2.32;87.92;100909.81;1741410;82;21519;-52
2021/03/13 04:08:54;;;;;;;28.62;15.88;;;;;;;2.34;87.83;100900.12;1738759;82;21353;-51
2021/03/13 04:11:22;;;;;;;29.67;14.70;;;;;;;2.36;87.63;100895.70;1738702;82;20980;-51
2021/03/13 04:13:52;;;;;;;27.35;15.10;;;;;;;2.36;87.41;100897.03;1738601;82;21097;-51
2021/03/13 04:16:20;;;;;;;28.38;15.48;;;;;;;2.36;87.18;100902.78;1738783;82;21520;-51
2021/03/13 04:18:48;;;;;;;29.20;15.72;;;;;;;2.33;87.12;100903.64;1738649;82;21063;-51
2021/03/13 04:21:16;;;;;;;37.93;18.67;;;;;;;2.35;87.06;100910.27;1738862;82;21387;-52
2021/03/13 04:23:46;;;;;;;32.55;17.10;;;;;;;2.35;87.03;100914.24;1688489;82;22056;-51
2021/03/13 04:26:18;;;;;;;33.83;18.30;;;;;;;2.37;86.94;100915.13;1738726;82;21162;-52
2021/03/13 04:28:45;;;;;;;38.58;18.32;;;;;;;2.38;86.84;100908.49;1738620;82;21143;-51
2021/03/13 04:31:16;;;;;;;44.33;19.32;;;;;;;2.41;86.70;100915.11;1738718;82;21172;-51
2021/03/13 04:33:44;;;;;;;49.08;20.72;;;;;;;2.45;85.95;100916.47;1738632;82;21373;-51
2021/03/13 04:36:12;;;;;;;32.48;18.65;;;;;;;2.50;85.39;100924.83;1738646;82;21086;-51
2021/03/13 04:38:40;;;;;;;39.60;18.77;;;;;;;2.56;84.93;100918.24;1738686;82;21079;-52
2021/03/13 04:41:08;;;;;;;41.53;19.67;;;;;;;2.62;84.51;100923.09;1738665;82;21067;-51
2021/03/13 04:43:35;;;;;;;39.35;20.02;;;;;;;2.69;83.99;100922.20;1739046;82;21125;-52
2021/03/13 04:46:03;;;;;;;42.98;21.20;;;;;;;2.75;83.27;100915.58;1744428;82;21393;-52
2021/03/13 04:48:32;;;;;;;43.55;22.37;;;;;;;2.83;83.04;100923.09;1744489;82;21070;-50
2021/03/13 04:51:04;;;;;;;46.98;21.75;;;;;;;2.90;83.17;100912.49;1744473;82;21467;-51
2021/03/13 04:53:33;;;;;;;53.23;20.72;;;;;;;2.95;82.90;100914.27;1744490;82;21174;-51
2021/03/13 04:56:00;;;;;;;40.00;19.15;;;;;;;3.01;82.83;100914.25;1744472;82;21137;-51
2021/03/13 04:58:29;;;;;;;35.90;18.12;;;;;;;3.03;82.51;100910.28;1744452;82;21404;-50
2021/03/13 05:00:57;;;;;;;27.80;15.00;;;;;;;2.96;82.51;100919.10;1744378;82;21074;-50
2021/03/13 05:03:26;;;;;;;30.23;15.15;;;;;;;2.89;83.07;100926.62;1742211;82;21146;-50
2021/03/13 05:05:54;;;;;;;30.60;15.53;;;;;;;2.82;83.37;100926.62;1744413;82;21137;-51
2021/03/13 05:08:21;;;;;;;30.45;15.35;;;;;;;2.76;84.36;100929.25;1744457;82;21083;-50
2021/03/13 05:10:49;;;;;;;40.15;17.10;;;;;;;2.75;84.61;100929.27;1744386;82;21399;-52
2021/03/13 05:13:16;;;;;;;36.45;16.85;;;;;;;2.76;84.97;100919.98;1744349;82;21142;-51
2021/03/13 05:15:45;;;;;;;42.62;17.35;;;;;;;2.81;85.21;100922.22;1744464;82;21468;-51
2021/03/13 05:18:12;;;;;;;41.73;16.97;;;;;;;2.86;85.33;100920.88;1743146;81;21154;-51
2021/03/13 05:20:41;;;;;;;37.45;16.87;;;;;;;2.91;85.41;100931.05;1755192;81;21051;-51
2021/03/13 05:23:09;;;;;;;34.85;17.27;;;;;;;2.97;85.33;100928.81;1755060;81;21396;-52
2021/03/13 05:25:38;;;;;;;37.38;16.48;;;;;;;3.00;85.10;100923.54;1755078;81;21081;-51
2021/03/13 05:28:06;;;;;;;44.85;16.40;;;;;;;3.06;85.01;100928.82;1755068;81;21123;-51
2021/03/13 05:30:33;;;;;;;34.30;17.05;;;;;;;3.13;84.93;100930.56;1755144;81;21110;-51
2021/03/13 05:33:01;;;;;;;36.10;17.05;;;;;;;3.20;84.78;100929.22;1755092;81;21486;-51
2021/03/13 05:35:29;;;;;;;32.48;15.98;;;;;;;3.27;84.56;100938.95;1755182;81;21404;-51
2021/03/13 05:37:56;;;;;;;29.35;15.13;;;;;;;3.35;84.44;100933.64;1755141;81;21221;-51
2021/03/13 05:40:26;;;;;;;35.83;16.45;;;;;;;3.41;84.02;100931.83;1755047;81;21148;-50
2021/03/13 05:42:53;;;;;;;42.48;16.82;;;;;;;3.58;83.72;100950.80;1755119;81;21122;-51
2021/03/13 05:45:21;;;;;;;35.88;16.20;;;;;;;3.58;83.72;100950.80;1748388;81;21552;-50
2021/03/13 05:47:48;;;;;;;28.27;15.70;;;;;;;3.74;83.82;100952.95;1746885;82;21216;-51
2021/03/13 05:50:18;;;;;;;31.42;15.95;;;;;;;3.98;83.28;100946.68;1746715;82;21539;-51
2021/03/13 05:52:54;;;;;;;29.27;16.87;;;;;;;4.29;83.05;100943.84;1746825;82;21144;-51
2021/03/13 05:55:22;;;;;;;29.80;14.60;;;;;;;4.72;82.64;100953.75;1746774;82;21171;-51
2021/03/13 05:57:51;;;;;;;32.95;15.25;;;;;;;5.09;80.74;100953.92;1746873;82;21055;-51
2021/03/13 06:00:20;;;;;;;38.42;16.07;;;;;;;5.20;80.07;100963.13;1746858;82;21387;-52
2021/03/13 06:02:49;;;;;;;30.50;15.72;;;;;;;5.25;79.51;100966.63;1746722;82;21183;-51
2021/03/13 06:05:18;;;;;;;30.82;15.10;;;;;;;5.27;79.07;100975.46;1746794;82;21115;-50
2021/03/13 06:07:45;;;;;;;26.65;14.95;;;;;;;5.27;78.50;100994.08;1746632;82;21167;-52
2021/03/13 06:10:14;;;;;;;34.33;15.35;;;;;;;5.20;78.28;100987.06;1746786;82;21164;-52
2021/03/13 06:12:42;;;;;;;33.05;16.35;;;;;;;5.08;78.83;100994.23;1746732;82;21201;-51
2021/03/13 06:15:11;;;;;;;30.92;15.88;;;;;;;4.93;79.19;101002.31;1746668;82;21116;-51
2021/03/13 06:18:01;;;;;;;33.92;16.73;;;;;;;4.73;79.64;101009.54;1746713;82;21068;-51
2021/03/13 06:20:34;;;;;;;33.13;16.57;;;;;;;4.69;79.73;101011.78;1769533;80;21063;-51
2021/03/13 06:23:12;;;;;;;34.23;17.27;;;;;;;4.72;79.54;101008.20;1773231;80;21043;-51
2021/03/13 06:25:42;;;;;;;27.70;16.00;;;;;;;4.70;78.93;101010.89;1773142;80;21362;-51
2021/03/13 06:28:20;;;;;;;28.60;15.90;;;;;;;4.71;78.52;101015.74;1773310;81;21086;-51
2021/03/13 06:30:49;;;;;;;30.45;16.82;;;;;;;4.79;78.29;101011.28;1773390;81;21165;-52
2021/03/13 06:33:30;;;;;;;31.33;16.37;;;;;;;4.91;77.54;101010.74;1773432;80;21130;-52
2021/03/13 06:36:04;;;;;;;37.93;17.23;;;;;;;5.00;77.52;101021.32;1773416;81;21063;-52
2021/03/13 06:38:35;;;;;;;;;;;;;;;5.12;77.75;101023.00;1775992;81;21158;-52
2021/03/13 06:41:16;;;;;;;27.02;15.72;;;;;;;5.27;77.50;101022.85;1773451;81;20538;-51
2021/03/13 06:43:48;;;;;;;29.20;15.65;;;;;;;5.41;76.72;101022.72;1773303;81;21185;-50
2021/03/13 06:46:20;;;;;;;28.40;15.40;;;;;;;5.59;76.30;101015.47;1738779;82;21569;-51
2021/03/13 06:48:54;;;;;;;31.48;17.05;;;;;;;5.76;76.04;101029.95;1738697;82;21065;-51
2021/03/13 06:51:30;;;;;;;31.12;17.25;;;;;;;5.97;74.99;101036.80;1738804;82;21358;-51
2021/03/13 06:54:05;;;;;;;25.05;14.63;;;;;;;6.18;73.96;101039.26;1738663;82;21135;-51
2021/03/13 06:56:39;;;;;;;23.62;13.45;;;;;;;6.20;74.09;101038.34;1738730;82;21154;-51
2021/03/13 06:59:34;;;;;;;24.87;14.35;;;;;;;6.13;75.30;101048.19;1738753;82;21151;-51
2021/03/13 07:02:08;;;;;;;25.15;13.85;;;;;;;6.09;76.20;101036.28;1738721;82;21133;-51
2021/03/13 07:04:42;;;;;;;28.40;13.43;;;;;;;6.13;76.71;101030.02;1738757;82;21283;-52
2021/03/13 07:07:11;;;;;;;25.62;12.95;;;;;;;6.18;76.59;101036.59;1738607;82;21076;-51
2021/03/13 07:09:55;;;;;;;25.72;14.07;;;;;;;6.24;76.29;101033.41;1738916;82;21602;-51
2021/03/13 07:12:35;;;;;;;24.57;13.58;;;;;;;6.29;76.00;101034.70;1738679;82;21059;-51
2021/03/13 07:15:24;;;;;;;27.93;14.50;;;;;;;6.35;75.73;101031.08;1738776;82;21571;-52
2021/03/13 07:18:03;;;;;;;24.52;13.98;;;;;;;6.47;75.72;101043.36;1738737;82;21319;-51
2021/03/13 07:20:31;;;;;;;24.65;13.50;;;;;;;6.57;75.95;101033.89;1743752;82;21131;-52
2021/03/13 07:23:02;;;;;;;25.30;13.88;;;;;;;6.67;75.93;101029.31;1781697;80;21134;-53
2021/03/13 07:25:31;;;;;;;23.77;13.32;;;;;;;6.74;75.48;101033.64;1781536;80;21086;-52
2021/03/13 07:28:00;;;;;;;25.92;14.18;;;;;;;6.81;74.73;101036.20;1781634;80;21102;-52
2021/03/13 07:30:29;;;;;;;23.32;13.30;;;;;;;6.82;73.99;101038.86;1781516;80;21191;-52
2021/03/13 07:33:02;;;;;;;22.50;14.23;;;;;;;6.85;73.52;101032.15;1781648;80;21565;-52
2021/03/13 07:35:35;;;;;;;25.55;13.98;;;;;;;6.87;73.20;101038.33;1779705;80;21317;-51
2021/03/13 07:38:04;;;;;;;26.30;14.10;;;;;;;6.87;72.83;101034.34;1781506;80;21185;-51
2021/03/13 07:40:33;;;;;;;27.45;14.85;;;;;;;6.90;72.23;101035.19;1781594;80;21043;-52
2021/03/13 07:43:02;;;;;;;25.70;14.50;;;;;;;6.95;71.98;101037.33;1781552;80;21203;-52
2021/03/13 07:45:31;;;;;;;26.93;14.23;;;;;;;6.97;71.64;101026.22;1786601;80;21066;-51
2021/03/13 07:47:58;;;;;;;27.32;14.78;;;;;;;7.01;71.05;101027.92;1787318;80;21058;-52
2021/03/13 07:50:27;;;;;;;24.10;14.05;;;;;;;7.00;70.93;101027.03;1787417;80;21110;-51
2021/03/13 07:52:55;;;;;;;20.45;12.70;;;;;;;7.00;70.83;101032.83;1787354;80;21154;-52
2021/03/13 07:55:24;;;;;;;27.55;14.20;;;;;;;6.99;71.27;101035.06;1787370;80;21270;-52
2021/03/13 07:57:51;;;;;;;25.97;13.65;;;;;;;7.02;71.88;101033.69;1787313;80;21094;-52
2021/03/13 08:00:39;;;;;;;27.17;13.75;;;;;;;7.06;72.29;101038.05;1787409;80;21058;-52
2021/03/13 08:03:37;;;;;;;24.60;13.73;;;;;;;7.20;72.66;101031.16;1889605;76;26453;-52
2021/03/13 08:06:08;;;;;;;23.05;13.13;;;;;;;7.28;72.73;101028.38;1860399;77;20979;-52
2021/03/13 08:08:39;;;;;;;25.82;14.03;;;;;;;7.41;72.06;101029.94;1860506;77;21191;-52
2021/03/13 08:11:12;;;;;;;25.12;14.13;;;;;;;7.50;71.98;101024.00;1860275;77;20976;-52
2021/03/13 08:13:48;;;;;;;21.30;13.55;;;;;;;7.56;71.57;101027.88;1860359;77;21015;-52
2021/03/13 08:16:19;;;;;;;24.95;13.18;;;;;;;7.63;71.30;101025.55;1860443;77;20921;-52
2021/03/13 08:18:51;;;;;;;24.82;14.33;;;;;;;7.68;71.34;101027.67;1860361;77;21194;-53
2021/03/13 08:21:24;;;;;;;24.92;14.13;;;;;;;7.76;71.11;101022.20;1860412;77;21450;-52
2021/03/13 08:24:01;;;;;;;25.02;14.45;;;;;;;7.84;70.66;101030.03;1860353;77;21016;-52
2021/03/13 08:26:43;;;;;;;28.45;14.58;;;;;;;7.85;70.52;101034.02;1860434;77;20992;-52
2021/03/13 08:29:11;;;;;;;24.18;13.68;;;;;;;7.87;70.40;101035.34;1860383;77;20969;-52
2021/03/13 08:31:41;;;;;;;27.50;14.20;;;;;;;7.86;70.36;101040.26;1860433;77;21126;-52
2021/03/13 08:34:14;;;;;;;24.05;13.08;;;;;;;7.84;70.16;101043.37;1827724;77;22243;-52
2021/03/13 08:36:50;;;;;;;23.65;13.68;;;;;;;7.76;70.51;101039.98;1860368;77;20882;-52
2021/03/13 08:39:24;;;;;;;26.48;14.55;;;;;;;7.70;71.04;101043.64;1860397;77;21182;-52
2021/03/13 08:41:54;;;;;;;26.20;13.75;;;;;;;7.66;71.05;101048.18;1860511;77;21052;-52
2021/03/13 08:44:34;;;;;;;23.30;13.90;;;;;;;7.65;71.19;101043.75;1846401;77;21439;-52
2021/03/13 08:47:10;;;;;;;26.25;13.55;;;;;;;7.64;71.41;101047.33;1824995;78;21196;-52
2021/03/13 08:49:47;;;;;;;29.75;14.80;;;;;;;7.60;71.63;101048.27;1824982;78;21537;-54
2021/03/13 08:52:21;;;;;;;28.45;15.72;;;;;;;7.53;71.96;101043.95;1824962;78;20972;-52
2021/03/13 08:54:50;;;;;;;32.08;17.82;;;;;;;7.41;72.61;101045.05;1825045;78;21095;-52
2021/03/13 08:57:28;;;;;;;33.80;17.42;;;;;;;7.40;72.84;101041.48;1824903;78;21110;-52
2021/03/13 08:59:59;;;;;;;33.58;15.90;;;;;;;7.41;73.01;101028.61;1824909;78;21273;-51
2021/03/13 09:02:39;;;;;;;29.80;15.88;;;;;;;7.36;73.16;101026.92;1824768;78;20988;-52
2021/03/13 09:05:14;;;;;;;31.73;15.95;;;;;;;7.29;73.30;101024.80;1825027;78;21582;-53
2021/03/13 09:07:50;;;;;;;29.18;15.25;;;;;;;7.17;73.72;101034.75;1825065;78;21066;-52
2021/03/13 09:10:18;;;;;;;25.05;13.88;;;;;;;7.09;74.44;101027.34;1825000;77;21092;-52
2021/03/13 09:12:47;;;;;;;31.80;15.28;;;;;;;7.03;75.08;101017.64;1824812;77;22079;-51
2021/03/13 09:15:17;;;;;;;27.27;14.80;;;;;;;6.93;75.65;101031.14;1824303;78;20940;-53
2021/03/13 09:17:44;;;;;;;26.80;14.30;;;;;;;6.84;76.19;101041.48;1824370;78;21297;-52
2021/03/13 09:20:17;;;;;;;25.60;14.28;;;;;;;6.80;76.65;101044.67;1824378;78;21142;-52
2021/03/13 09:22:47;;;;;;;35.43;15.65;;;;;;;6.78;77.11;101046.48;1824270;78;21059;-52
2021/03/13 09:25:20;;;;;;;29.40;14.60;;;;;;;6.72;77.50;101051.88;1824429;77;21369;-52
2021/03/13 09:27:50;;;;;;;32.40;16.05;;;;;;;6.70;77.79;101057.25;1824398;78;21086;-52
2021/03/13 09:30:24;;;;;;;27.52;14.68;;;;;;;6.68;78.06;101055.49;1824343;78;21142;-51
2021/03/13 09:32:52;;;;;;;29.52;14.73;;;;;;;6.65;78.49;101039.12;1824253;78;21103;-51
2021/03/13 09:35:25;;;;;;;31.05;14.15;;;;;;;6.65;78.55;101038.22;1824326;78;21091;-51
2021/03/13 09:37:52;;;;;;;27.48;14.47;;;;;;;6.61;78.79;101021.38;1824308;77;21180;-51
2021/03/13 09:40:25;;;;;;;26.90;14.33;;;;;;;6.61;78.58;101021.38;1824289;78;20968;-51
2021/03/13 09:42:52;;;;;;;29.85;15.98;;;;;;;6.61;78.04;101028.05;1824374;78;21456;-53
2021/03/13 09:45:23;;;;;;;30.35;15.23;;;;;;;6.56;78.08;101035.23;1852839;77;20933;-53
2021/03/13 09:47:58;;;;;;;33.20;16.85;;;;;;;6.54;78.10;101044.59;1859925;77;21651;-55
2021/03/13 09:50:29;;;;;;;28.38;14.28;;;;;;;6.54;78.60;101049.02;1859694;77;21349;-53
2021/03/13 09:52:59;;;;;;;26.35;14.70;;;;;;;6.53;79.10;101052.16;1859766;77;21565;-51
2021/03/13 09:55:28;;;;;;;28.90;15.98;;;;;;;6.43;79.64;101051.83;1859681;77;21123;-52
2021/03/13 09:58:03;;;;;;;30.10;15.32;;;;;;;6.27;80.08;101054.67;1859730;77;21052;-51
2021/03/13 10:00:39;;;;;;;28.73;16.23;;;;;;;6.16;81.15;101051.27;1859825;77;21139;-52
2021/03/13 10:03:12;;;;;;;28.62;16.17;;;;;;;6.09;82.36;101057.58;1859504;77;21359;-52
2021/03/13 10:05:40;;;;;;;26.50;15.32;;;;;;;6.06;83.34;101050.50;1859750;77;20992;-52
2021/03/13 10:08:14;;;;;;;25.75;15.45;;;;;;;6.07;83.62;101052.26;1859873;77;21417;-53
2021/03/13 10:10:47;;;;;;;30.50;16.07;;;;;;;6.08;84.20;101048.70;1860073;77;21064;-52
2021/03/13 10:13:16;;;;;;;28.40;15.78;;;;;;;5.98;84.99;101055.88;1859766;77;21464;-53
2021/03/13 10:15:44;;;;;;;36.60;19.95;;;;;;;5.86;85.92;101054.69;1859748;77;21352;-53
2021/03/13 10:18:20;;;;;;;36.20;18.75;;;;;;;5.77;86.57;101051.67;1859577;77;20952;-52
2021/03/13 10:20:53;;;;;;;32.90;18.00;;;;;;;5.72;87.28;101041.06;1859658;77;21158;-52
2021/03/13 10:23:24;;;;;;;29.55;15.88;;;;;;;5.68;88.43;101039.34;1859729;77;21555;-52
2021/03/13 10:26:13;;;;;;;30.82;16.37;;;;;;;5.69;89.10;101033.13;1859780;77;21024;-52
2021/03/13 10:28:47;;;;;;;33.00;17.82;;;;;;;5.70;89.18;101035.31;1859851;77;21527;-52
2021/03/13 10:31:28;;;;;;;31.27;16.82;;;;;;;5.66;89.69;101038.48;1859660;77;21173;-52
2021/03/13 10:33:57;;;;;;;29.98;17.27;;;;;;;5.68;89.87;101034.02;1859788;77;21127;-53
2021/03/13 10:36:44;;;;;;;33.85;17.82;;;;;;;5.71;89.77;101041.97;1859658;77;20944;-51
2021/03/13 10:39:12;;;;;;;33.90;16.23;;;;;;;5.73;90.14;101035.28;1859879;77;21028;-51
2021/03/13 10:41:54;;;;;;;29.67;15.95;;;;;;;5.76;89.52;101030.39;1859630;77;21678;-52
2021/03/13 10:44:21;;;;;;;33.95;17.77;;;;;;;5.80;89.09;101033.44;1845847;77;21122;-52
2021/03/13 10:46:48;;;;;;;36.20;18.57;;;;;;;5.81;88.76;101040.53;1824226;78;21085;-52
2021/03/13 10:49:27;;;;;;;35.92;18.32;;;;;;;5.82;88.24;101047.18;1824210;78;21030;-52
2021/03/13 10:51:55;;;;;;;34.48;18.35;;;;;;;5.87;87.66;101048.00;1824320;77;21093;-52
2021/03/13 10:54:25;;;;;;;34.83;18.90;;;;;;;5.96;87.00;101050.12;1824280;78;21342;-52
2021/03/13 10:56:52;;;;;;;35.52;18.25;;;;;;;6.02;86.87;101052.77;1824151;77;21059;-52
2021/03/13 10:59:31;;;;;;;30.82;16.57;;;;;;;6.08;86.08;101048.70;1824223;77;20988;-52
2021/03/13 11:01:58;;;;;;;32.13;17.52;;;;;;;6.14;85.55;101054.41;1824143;78;21566;-51
2021/03/13 11:04:26;;;;;;;32.38;16.30;;;;;;;6.18;85.11;101053.47;1824324;78;21046;-52
2021/03/13 11:06:54;;;;;;;38.28;18.62;;;;;;;6.20;84.55;101059.66;1824223;77;21359;-52
2021/03/13 11:09:23;;;;;;;33.70;17.27;;;;;;;6.18;84.39;101058.80;1824240;78;21376;-52
2021/03/13 11:11:51;;;;;;;32.55;18.30;;;;;;;6.18;84.71;101059.22;1824283;78;21042;-52
2021/03/13 11:14:18;;;;;;;30.95;16.87;;;;;;;6.13;85.23;101062.83;1824255;78;21150;-51
2021/03/13 11:16:47;;;;;;;32.38;17.57;;;;;;;6.09;85.65;101058.91;1824177;77;21154;-53
2021/03/13 11:19:15;;;;;;;30.75;15.93;;;;;;;6.08;86.19;101058.45;1824307;78;21193;-51
2021/03/13 11:21:43;;;;;;;34.25;18.60;;;;;;;6.05;86.41;101051.40;1824058;78;21146;-52
2021/03/13 11:24:11;;;;;;;32.67;18.30;;;;;;;6.05;86.67;101046.51;1824207;77;21079;-51
2021/03/13 11:26:39;;;;;;;35.15;17.90;;;;;;;6.06;86.60;101045.61;1824169;78;21130;-52
2021/03/13 11:29:07;;;;;;;34.13;18.55;;;;;;;6.08;86.92;101037.16;1824261;77;21146;-52
2021/03/13 11:31:34;;;;;;;33.53;18.23;;;;;;;6.06;87.28;101037.63;1824202;78;21193;-52
2021/03/13 11:34:02;;;;;;;31.05;16.77;;;;;;;6.05;87.45;101035.86;1824111;78;21051;-52
2021/03/13 11:36:30;;;;;;;35.63;17.87;;;;;;;6.07;87.30;101038.05;1824198;78;21094;-51
2021/03/13 11:38:57;;;;;;;32.65;17.95;;;;;;;6.07;87.61;101040.72;1824187;78;21133;-51